Terminal Aerodrome Forecast
Issued by NWS Wakefield, VA

Home | Current Version | Previous Version | Text Only | Print | Product List | Glossary On
Versions: 1 2 3 4 5 6 7 8 9 10 11 12 13 14 15 16 17 18 19
000
FTUS41 KAKQ 190540
TAFORF
TAF
KORF 190540Z 1906/2006 00000KT P6SM SCT250
     FM190700 00000KT 4SM BR SCT250
      TEMPO 1908/1911 2SM BR
     FM191100 05008KT P6SM BKN250
     FM191300 05012G21KT P6SM SCT150 BKN250
     FM191700 08018G28KT 4SM BR OVC025
     FM192100 10017G25KT 3SM RA BR OVC008=

USA.gov is the U.S. government's official web portal to all federal, state and local government web resources and services.